Time;durP1;ratioP1;P1;durP2;ratioP2;P2;SDS_P1;SDS_P2;PMS_P1;PMS_P2;Temp;Humidity;BMP_temperature;BMP_pressure;BME280_temperature;BME280_humidity;BME280_pressure;Samples;Min_cycle;Max_cycle;Signal;HPM_P1;HPM_P2
2021/04/02 00:00:56;;;;;;;14.35;4.72;;;;;;;5.13;71.91;102509.66;5243411;28;20021;-69
2021/04/02 00:03:33;;;;;;;7.65;4.43;;;;;;;5.08;72.20;102510.72;5240540;28;20041;-68
2021/04/02 00:06:06;;;;;;;14.88;4.90;;;;;;;5.01;72.74;102507.50;5240665;28;20420;-71
2021/04/02 00:08:38;;;;;;;8.98;4.07;;;;;;;5.25;73.53;102503.16;5243616;28;20529;-71
2021/04/02 00:11:11;;;;;;;9.38;4.25;;;;;;;5.10;72.18;102504.56;5241965;28;20046;-69
2021/04/02 00:13:45;;;;;;;11.07;4.65;;;;;;;4.97;72.35;102507.66;5241346;28;20118;-70
2021/04/02 00:16:19;;;;;;;9.13;4.32;;;;;;;4.89;72.50;102505.31;5242364;28;20045;-69
2021/04/02 00:18:50;;;;;;;9.18;4.00;;;;;;;4.99;72.81;102501.50;5241062;28;20513;-69
2021/04/02 00:21:21;;;;;;;12.75;4.68;;;;;;;5.01;72.03;102504.91;5243072;28;20217;-69
2021/04/02 00:23:53;;;;;;;12.52;5.00;;;;;;;4.86;71.87;102505.44;5244375;28;20021;-69
2021/04/02 00:26:24;;;;;;;11.55;3.90;;;;;;;4.82;71.58;102501.25;5242340;28;20063;-69
2021/04/02 00:28:56;;;;;;;11.68;3.85;;;;;;;4.75;72.27;102502.34;5242763;28;20491;-68
2021/04/02 00:31:27;;;;;;;14.85;4.75;;;;;;;4.69;73.08;102497.34;5241953;28;20029;-69
2021/04/02 00:34:00;;;;;;;12.63;3.47;;;;;;;4.61;72.69;102503.63;5233363;28;20365;-69
2021/04/02 00:36:31;;;;;;;9.73;3.97;;;;;;;4.51;73.36;102494.47;5243277;28;20029;-69
2021/04/02 00:39:03;;;;;;;13.98;4.57;;;;;;;4.39;73.29;102493.13;5241636;28;20029;-69
2021/04/02 00:41:34;;;;;;;9.95;4.10;;;;;;;4.39;72.85;102503.53;5241656;28;20116;-69
2021/04/02 00:44:06;;;;;;;9.88;4.65;;;;;;;4.30;73.22;102497.75;5242346;28;20147;-69
2021/04/02 00:46:37;;;;;;;9.07;4.68;;;;;;;4.36;72.42;102497.56;5240471;28;20016;-69
2021/04/02 00:49:08;;;;;;;15.60;4.32;;;;;;;4.25;73.53;102503.09;5240918;28;20044;-69
2021/04/02 00:51:40;;;;;;;9.10;4.18;;;;;;;4.21;73.60;102501.50;5241589;28;20025;-69
2021/04/02 00:54:11;;;;;;;12.50;4.70;;;;;;;4.17;72.94;102506.81;5239755;28;20055;-70
2021/04/02 00:56:42;;;;;;;11.23;4.78;;;;;;;4.12;74.20;102496.59;5240795;28;20424;-68
2021/04/02 00:59:14;;;;;;;10.15;4.97;;;;;;;4.07;74.14;102488.97;5233622;28;20029;-69
2021/04/02 01:01:45;;;;;;;16.17;5.00;;;;;;;4.14;73.73;102495.66;5238885;28;20025;-68
2021/04/02 01:04:16;;;;;;;13.68;4.38;;;;;;;4.11;73.99;102490.56;5241199;28;20219;-68
2021/04/02 01:06:48;;;;;;;11.40;4.65;;;;;;;3.99;74.36;102501.31;5241722;28;20017;-68
2021/04/02 01:09:19;;;;;;;14.60;5.25;;;;;;;3.94;74.89;102499.75;5240208;28;20033;-69
2021/04/02 01:11:50;;;;;;;12.23;4.32;;;;;;;4.00;73.82;102503.00;5239679;28;20021;-68
2021/04/02 01:14:22;;;;;;;11.52;5.68;;;;;;;3.93;75.69;102500.66;5241756;28;20056;-69
2021/04/02 01:16:54;;;;;;;13.82;4.80;;;;;;;3.86;75.63;102499.97;5239757;28;20057;-68
2021/04/02 01:19:38;;;;;;;11.15;5.07;;;;;;;4.03;75.50;102504.66;5241891;28;20116;-68
2021/04/02 01:22:18;;;;;;;13.52;5.00;;;;;;;4.01;75.78;102506.44;5240263;28;20033;-71
2021/04/02 01:25:14;;;;;;;12.23;5.03;;;;;;;3.95;76.29;102494.53;5242022;28;20031;-71
2021/04/02 01:28:00;;;;;;;12.93;4.85;;;;;;;3.99;76.28;102497.88;5240022;28;20025;-69
2021/04/02 01:30:33;;;;;;;13.82;5.05;;;;;;;3.83;76.25;102497.50;5238618;28;20108;-69
2021/04/02 01:33:10;;;;;;;13.73;4.78;;;;;;;3.91;76.02;102495.53;5240632;28;20047;-69
2021/04/02 01:35:44;;;;;;;14.98;4.15;;;;;;;3.88;76.56;102490.44;5237979;28;20406;-69
2021/04/02 01:38:36;;;;;;;13.35;4.60;;;;;;;3.95;76.38;102491.94;5241973;28;20117;-69
2021/04/02 01:41:10;;;;;;;15.82;4.95;;;;;;;3.79;77.01;102490.69;5239651;28;20037;-70
2021/04/02 01:43:45;;;;;;;12.63;4.68;;;;;;;3.82;77.09;102495.78;5240131;28;20033;-68
2021/04/02 01:46:18;;;;;;;16.35;5.43;;;;;;;3.82;76.66;102493.19;5239359;28;20091;-69
2021/04/02 01:48:54;;;;;;;13.20;5.07;;;;;;;3.93;76.94;102490.28;5239796;28;20079;-69
2021/04/02 01:51:26;;;;;;;12.60;4.90;;;;;;;3.77;77.45;102482.97;5241195;28;20029;-69
2021/04/02 01:54:00;;;;;;;15.05;4.60;;;;;;;3.75;77.83;102491.66;5239594;28;20463;-69
2021/04/02 01:56:33;;;;;;;14.52;4.72;;;;;;;3.75;77.92;102491.66;5237417;28;20107;-69
2021/04/02 01:59:07;;;;;;;9.63;4.28;;;;;;;3.79;77.73;102498.47;5230708;28;20045;-69
2021/04/02 02:01:41;;;;;;;10.25;4.78;;;;;;;3.71;78.10;102497.84;5240847;28;20072;-69
2021/04/02 02:04:16;;;;;;;13.57;5.07;;;;;;;3.65;77.86;102497.13;5239678;28;20495;-69
2021/04/02 02:06:51;;;;;;;12.73;4.82;;;;;;;3.63;78.76;102500.66;5238861;28;20030;-69
2021/04/02 02:09:33;;;;;;;12.73;4.45;;;;;;;3.60;79.29;102500.78;5237749;28;20029;-69
2021/04/02 02:12:09;;;;;;;14.00;4.32;;;;;;;3.59;79.28;102501.66;5239778;28;20037;-69
2021/04/02 02:14:44;;;;;;;11.48;5.30;;;;;;;3.52;79.44;102500.97;5241290;28;20486;-70
2021/04/02 02:17:23;;;;;;;13.48;4.90;;;;;;;3.52;79.52;102495.78;5239889;28;20419;-69
2021/04/02 02:19:55;;;;;;;13.80;4.55;;;;;;;3.60;79.36;102491.25;5237956;28;20090;-69
2021/04/02 02:22:26;;;;;;;16.13;4.63;;;;;;;3.53;79.77;102489.72;5238553;28;20051;-69
2021/04/02 02:24:58;;;;;;;11.65;4.78;;;;;;;3.52;79.85;102485.41;5220771;28;20021;-69
2021/04/02 02:27:29;;;;;;;13.32;4.78;;;;;;;3.51;79.30;102494.09;5239484;28;20082;-69
2021/04/02 02:30:04;;;;;;;13.38;4.10;;;;;;;3.48;79.69;102485.56;5240808;28;20079;-69
2021/04/02 02:32:36;;;;;;;12.90;4.05;;;;;;;3.56;79.97;102486.19;5236180;28;20557;-69
2021/04/02 02:35:09;;;;;;;14.75;4.25;;;;;;;3.54;79.47;102487.97;5239892;28;20025;-69
2021/04/02 02:37:43;;;;;;;10.18;4.25;;;;;;;3.58;79.35;102487.84;5240021;28;20067;-69
2021/04/02 02:40:20;;;;;;;13.65;4.47;;;;;;;3.50;80.30;102484.63;5240286;28;20386;-69
2021/04/02 02:42:53;;;;;;;13.85;4.70;;;;;;;3.44;80.31;102486.53;5232439;28;20029;-69
2021/04/02 02:45:28;;;;;;;14.73;4.47;;;;;;;3.47;79.91;102482.13;5237660;28;20081;-69
2021/04/02 02:47:59;;;;;;;12.85;4.72;;;;;;;3.49;80.52;102482.94;5239688;28;20025;-69
2021/04/02 02:50:34;;;;;;;10.45;4.38;;;;;;;3.56;79.46;102475.81;5239889;28;20024;-69
2021/04/02 02:53:07;;;;;;;11.02;4.93;;;;;;;3.47;79.99;102482.13;5241191;28;20475;-69
2021/04/02 02:55:41;;;;;;;10.32;4.20;;;;;;;3.46;79.83;102480.44;5239251;28;20033;-69
2021/04/02 02:58:15;;;;;;;13.10;4.35;;;;;;;3.42;79.77;102481.41;5238250;28;20132;-69
2021/04/02 03:00:48;;;;;;;9.48;4.45;;;;;;;3.53;79.57;102489.72;5238959;28;20029;-68
2021/04/02 03:03:21;;;;;;;11.53;4.00;;;;;;;3.42;80.03;102489.19;5238087;28;20033;-69
2021/04/02 03:05:56;;;;;;;13.18;5.10;;;;;;;3.44;79.94;102486.53;5221869;28;20290;-69
2021/04/02 03:08:32;;;;;;;11.15;4.05;;;;;;;3.42;79.55;102486.59;5237765;28;20033;-69
2021/04/02 03:11:07;;;;;;;11.85;4.25;;;;;;;3.34;79.70;102493.75;5238893;28;20061;-68
2021/04/02 03:13:41;;;;;;;12.65;4.20;;;;;;;3.37;80.54;102486.72;5239951;28;20056;-69
2021/04/02 03:16:13;;;;;;;8.80;4.35;;;;;;;3.34;80.00;102483.38;5240075;28;20025;-69
2021/04/02 03:18:48;;;;;;;10.13;3.92;;;;;;;3.38;79.61;102477.22;5239204;28;20446;-69
2021/04/02 03:21:21;;;;;;;7.95;3.72;;;;;;;3.30;79.66;102482.63;5238511;28;20025;-69
2021/04/02 03:23:53;;;;;;;10.98;3.75;;;;;;;3.31;79.61;102493.81;5237706;28;20445;-69
2021/04/02 03:26:24;;;;;;;9.23;4.10;;;;;;;3.27;80.35;102485.28;5241300;28;20033;-69
2021/04/02 03:28:57;;;;;;;13.27;4.53;;;;;;;3.27;80.71;102497.41;5241438;28;20079;-69
2021/04/02 03:31:32;;;;;;;8.88;3.97;;;;;;;3.29;80.55;102495.59;5242035;28;20483;-69
2021/04/02 03:34:08;;;;;;;11.38;4.13;;;;;;;3.27;80.24;102500.81;5242180;28;20037;-69
2021/04/02 03:36:43;;;;;;;11.13;3.58;;;;;;;3.29;80.53;102493.00;5241290;28;20037;-69
2021/04/02 03:39:22;;;;;;;10.35;3.83;;;;;;;3.29;79.85;102496.44;5245043;28;20037;-69
2021/04/02 03:41:57;;;;;;;11.50;4.18;;;;;;;3.21;80.27;102488.03;5241335;28;20514;-69
2021/04/02 03:44:31;;;;;;;14.90;4.05;;;;;;;3.30;80.17;102497.31;5242024;28;20040;-69
2021/04/02 03:47:04;;;;;;;9.20;3.80;;;;;;;3.25;80.33;102501.75;5244041;28;20044;-69
2021/04/02 03:49:37;;;;;;;13.93;4.05;;;;;;;3.19;80.07;102494.16;5242631;28;20129;-69
2021/04/02 03:52:15;;;;;;;15.38;4.13;;;;;;;3.31;80.28;102499.00;5240388;28;20037;-69
2021/04/02 03:54:49;;;;;;;10.40;3.60;;;;;;;3.26;80.74;102496.53;5236106;28;20083;-69
2021/04/02 03:57:24;;;;;;;9.50;3.60;;;;;;;3.23;80.38;102498.38;5242533;28;20067;-69
2021/04/02 03:59:58;;;;;;;9.40;3.22;;;;;;;3.31;80.43;102497.25;5242341;28;20029;-69
2021/04/02 04:02:31;;;;;;;13.15;4.22;;;;;;;3.25;80.58;102496.56;5239204;28;20029;-69
2021/04/02 04:05:04;;;;;;;9.85;3.78;;;;;;;3.25;80.51;102493.97;5241908;28;20364;-69
2021/04/02 04:07:35;;;;;;;9.93;4.07;;;;;;;3.26;80.28;102498.25;5240621;28;20029;-69
2021/04/02 04:10:07;;;;;;;10.57;4.38;;;;;;;3.35;80.13;102493.69;5241702;28;20086;-69
2021/04/02 04:12:40;;;;;;;13.23;3.55;;;;;;;3.29;80.53;102487.81;5222806;28;20037;-69
2021/04/02 04:15:13;;;;;;;9.77;3.75;;;;;;;3.32;80.49;102498.09;5241374;28;20406;-69
2021/04/02 04:17:47;;;;;;;11.02;3.70;;;;;;;3.36;80.38;102504.91;5242471;28;20037;-69
2021/04/02 04:20:20;;;;;;;15.05;3.88;;;;;;;3.27;80.53;102502.56;5232494;28;20026;-69
2021/04/02 04:22:52;;;;;;;9.63;3.45;;;;;;;3.23;80.11;102500.97;5239953;28;20471;-69
2021/04/02 04:25:25;;;;;;;12.63;3.97;;;;;;;3.30;81.32;102507.66;5240524;28;20124;-69
2021/04/02 04:27:59;;;;;;;8.67;3.37;;;;;;;3.23;80.43;102508.72;5241182;28;20040;-69
2021/04/02 04:30:31;;;;;;;10.57;4.05;;;;;;;3.28;81.01;102507.69;5241761;28;20083;-69
2021/04/02 04:33:03;;;;;;;9.87;3.80;;;;;;;3.29;80.52;102511.13;5242901;28;20409;-69
2021/04/02 04:35:35;;;;;;;7.95;3.45;;;;;;;3.26;81.10;102509.50;5239656;28;20079;-69
2021/04/02 04:38:07;;;;;;;12.20;4.03;;;;;;;3.20;80.93;102507.06;5238649;28;20277;-68
2021/04/02 04:40:40;;;;;;;13.15;3.95;;;;;;;3.17;81.02;102504.56;5235025;28;20494;-69
2021/04/02 04:43:14;;;;;;;8.73;3.57;;;;;;;3.18;81.30;102511.41;5240818;28;20037;-69
2021/04/02 04:45:46;;;;;;;12.48;3.72;;;;;;;3.13;81.13;102516.72;5243580;28;20225;-69
2021/04/02 04:48:17;;;;;;;8.20;3.67;;;;;;;3.17;81.00;102512.31;5241425;28;20029;-69
2021/04/02 04:50:48;;;;;;;11.30;3.80;;;;;;;3.10;81.47;102518.56;5242070;28;20053;-68
2021/04/02 04:53:29;;;;;;;8.70;3.53;;;;;;;3.17;81.40;102515.75;5239305;28;20021;-68
2021/04/02 04:56:03;;;;;;;12.18;3.70;;;;;;;3.07;81.68;102516.91;5239646;28;20120;-68
2021/04/02 04:58:39;;;;;;;8.18;3.65;;;;;;;3.05;81.29;102510.91;5223976;28;20029;-68
2021/04/02 05:01:12;;;;;;;10.20;3.45;;;;;;;3.08;81.71;102517.75;5239780;28;20036;-69
2021/04/02 05:03:44;;;;;;;15.50;4.53;;;;;;;3.10;81.65;102518.56;5239945;28;20029;-69
2021/04/02 05:06:18;;;;;;;10.57;4.20;;;;;;;3.07;81.48;102514.31;5240144;28;20524;-68
2021/04/02 05:08:52;;;;;;;9.80;3.60;;;;;;;3.04;81.60;102510.97;5238720;28;20037;-69
2021/04/02 05:11:25;;;;;;;10.35;3.65;;;;;;;3.06;82.15;102522.13;5239054;28;20029;-68
2021/04/02 05:13:57;;;;;;;10.23;4.10;;;;;;;3.02;82.19;102521.34;5238271;28;20025;-70
2021/04/02 05:16:32;;;;;;;10.85;4.13;;;;;;;3.01;82.08;102535.19;5224410;28;20037;-68
2021/04/02 05:19:04;;;;;;;10.40;4.32;;;;;;;3.07;81.84;102516.91;5248871;28;20041;-70
2021/04/02 05:21:37;;;;;;;14.45;5.15;;;;;;;2.95;82.13;102527.56;5238922;28;20024;-69
2021/04/02 05:24:18;;;;;;;9.93;4.15;;;;;;;2.98;81.89;102526.66;5238483;28;20037;-68
2021/04/02 05:26:50;;;;;;;12.93;4.18;;;;;;;2.91;82.22;102528.53;5233797;28;20160;-67
2021/04/02 05:29:22;;;;;;;9.20;4.18;;;;;;;2.96;81.77;102536.22;5238647;28;20025;-68
2021/04/02 05:31:53;;;;;;;7.03;4.25;;;;;;;2.95;81.67;102539.66;5241946;28;20064;-68
2021/04/02 05:34:24;;;;;;;10.85;3.97;;;;;;;2.92;81.59;102538.88;5238695;28;20049;-68
2021/04/02 05:36:56;;;;;;;10.52;4.03;;;;;;;2.88;82.20;102542.44;5237698;28;20526;-68
2021/04/02 05:39:27;;;;;;;9.13;4.65;;;;;;;2.97;82.38;102540.50;5240369;28;20025;-68
2021/04/02 05:42:05;;;;;;;13.52;4.20;;;;;;;3.01;81.96;102539.53;5234526;28;20087;-68
2021/04/02 05:44:37;;;;;;;11.55;4.85;;;;;;;3.10;81.58;102544.44;5238360;28;20108;-68
2021/04/02 05:47:09;;;;;;;13.35;4.68;;;;;;;3.07;82.02;102541.94;5238022;28;20116;-68
2021/04/02 05:49:41;;;;;;;15.30;4.30;;;;;;;3.02;81.73;102549.81;5239128;28;20021;-69
2021/04/02 05:52:13;;;;;;;10.55;4.55;;;;;;;3.02;82.21;102552.41;5238832;28;20482;-68
2021/04/02 05:54:46;;;;;;;11.10;4.53;;;;;;;3.04;82.04;102553.25;5238496;28;20029;-68
2021/04/02 05:57:18;;;;;;;9.43;4.13;;;;;;;3.09;82.28;102553.97;5238300;28;20037;-68
2021/04/02 05:59:52;;;;;;;11.27;4.60;;;;;;;3.07;82.31;102560.06;5238584;28;20422;-68
2021/04/02 06:02:24;;;;;;;10.38;4.10;;;;;;;3.09;82.56;102564.31;5240998;28;20026;-69
2021/04/02 06:04:56;;;;;;;11.45;4.75;;;;;;;3.07;82.00;102560.06;5239461;28;20029;-69
2021/04/02 06:07:28;;;;;;;12.73;4.18;;;;;;;3.06;81.84;102556.63;5232166;28;20029;-68
2021/04/02 06:09:59;;;;;;;13.60;4.80;;;;;;;3.08;81.94;102562.63;5238585;28;20061;-68
2021/04/02 06:12:35;;;;;;;15.13;5.32;;;;;;;3.13;82.18;102555.56;5240501;28;20102;-68
2021/04/02 06:15:07;;;;;;;17.05;5.13;;;;;;;3.12;82.06;102559.06;5240306;28;20535;-68
2021/04/02 06:18:02;;;;;;;15.25;4.75;;;;;;;3.25;81.82;102561.31;5238616;28;20044;-68
2021/04/02 06:20:37;;;;;;;11.63;4.75;;;;;;;3.24;81.79;102568.25;5240770;28;20393;-69
2021/04/02 06:23:13;;;;;;;14.95;5.55;;;;;;;3.21;82.09;102554.53;5238482;28;20069;-69
2021/04/02 06:25:48;;;;;;;10.68;4.75;;;;;;;3.28;81.67;102562.09;5238598;28;20045;-68
2021/04/02 06:28:23;;;;;;;12.27;4.25;;;;;;;3.30;81.68;102562.06;5238248;28;20040;-68
2021/04/02 06:31:01;;;;;;;11.18;4.60;;;;;;;3.38;81.98;102565.31;5238443;28;20394;-69
2021/04/02 06:33:40;;;;;;;11.57;5.13;;;;;;;3.41;81.80;102565.22;5238629;28;20079;-69
2021/04/02 06:36:14;;;;;;;9.15;4.20;;;;;;;3.45;81.74;102566.84;5238062;28;20478;-68
2021/04/02 06:38:49;;;;;;;19.95;5.18;;;;;;;3.48;81.60;102569.31;5236963;28;20041;-68
2021/04/02 06:41:22;;;;;;;12.77;4.88;;;;;;;3.58;81.04;102573.38;5239489;28;20429;-68
2021/04/02 06:43:59;;;;;;;14.80;4.88;;;;;;;3.68;81.39;102570.53;5236605;28;20025;-69
2021/04/02 06:46:33;;;;;;;12.30;4.55;;;;;;;3.66;80.88;102555.84;5239476;28;20028;-68
2021/04/02 06:49:20;;;;;;;13.05;4.70;;;;;;;3.79;81.13;102565.88;5237737;28;20021;-68
2021/04/02 06:51:52;;;;;;;14.23;4.00;;;;;;;3.85;79.82;102568.28;5229708;28;20120;-68
2021/04/02 06:54:26;;;;;;;12.27;4.07;;;;;;;3.95;80.16;102568.88;5237916;28;20025;-68
2021/04/02 06:57:09;;;;;;;10.40;3.92;;;;;;;4.03;79.86;102559.13;5232578;28;20021;-68
2021/04/02 06:59:41;;;;;;;13.20;3.77;;;;;;;4.17;79.44;102556.09;5239094;28;20041;-68
2021/04/02 07:02:16;;;;;;;14.85;3.83;;;;;;;4.24;79.16;102560.22;5244706;28;20041;-67
2021/04/02 07:04:48;;;;;;;12.55;4.05;;;;;;;4.35;78.87;102571.09;5242677;28;20102;-68
2021/04/02 07:07:20;;;;;;;12.77;3.38;;;;;;;4.42;77.99;102570.03;5241992;28;20345;-68
2021/04/02 07:09:55;;;;;;;14.85;4.85;;;;;;;4.51;77.78;102566.28;5241109;28;20111;-67
2021/04/02 07:12:28;;;;;;;15.25;4.57;;;;;;;4.62;77.86;102565.06;5242262;28;20033;-68
2021/04/02 07:15:01;;;;;;;14.05;3.38;;;;;;;4.68;77.02;102558.81;5242255;28;20277;-68
2021/04/02 07:17:34;;;;;;;15.07;3.83;;;;;;;4.84;76.29;102570.38;5234890;28;20036;-68
2021/04/02 07:20:06;;;;;;;9.30;3.25;;;;;;;4.91;76.03;102575.38;5242369;28;20029;-69
2021/04/02 07:22:41;;;;;;;11.63;4.10;;;;;;;5.01;75.28;102577.63;5242209;28;20302;-68
2021/04/02 07:25:13;;;;;;;11.27;3.40;;;;;;;5.04;74.51;102576.69;5242572;28;20021;-68
2021/04/02 07:27:46;;;;;;;9.18;2.90;;;;;;;5.12;74.42;102582.47;5243542;28;20040;-69
2021/04/02 07:30:21;;;;;;;14.33;3.60;;;;;;;5.25;74.90;102575.94;5243084;28;20376;-69
2021/04/02 07:32:53;;;;;;;17.35;3.47;;;;;;;5.25;74.20;102577.69;5244721;28;20409;-70
2021/04/02 07:35:25;;;;;;;12.82;3.75;;;;;;;5.40;74.53;102586.69;5242452;28;20045;-68
2021/04/02 07:37:58;;;;;;;10.60;3.47;;;;;;;5.48;74.13;102585.50;5243096;28;20033;-69
2021/04/02 07:40:34;;;;;;;10.68;2.92;;;;;;;5.63;73.85;102589.31;5243675;28;20071;-69
2021/04/02 07:43:08;;;;;;;13.15;2.70;;;;;;;5.69;73.50;102594.31;5242258;28;20032;-68
2021/04/02 07:45:40;;;;;;;11.55;3.33;;;;;;;5.67;71.16;102587.47;5246601;28;20022;-69
2021/04/02 07:48:20;;;;;;;9.45;2.42;;;;;;;5.75;71.92;102588.88;5237517;28;20037;-69
2021/04/02 07:50:56;;;;;;;21.13;3.85;;;;;;;5.73;71.77;102588.09;5240786;28;20382;-69
2021/04/02 07:53:27;;;;;;;8.43;2.63;;;;;;;5.83;70.54;102591.19;5241245;28;20112;-69
2021/04/02 07:56:10;;;;;;;12.37;2.87;;;;;;;5.98;70.82;102602.81;5240081;28;20027;-69
2021/04/02 07:58:46;;;;;;;7.55;2.60;;;;;;;6.09;70.58;102596.28;5242567;28;20287;-70
2021/04/02 08:01:23;;;;;;;15.63;3.72;;;;;;;6.27;70.39;102593.91;5239328;28;20402;-71
2021/04/02 08:04:01;;;;;;;10.10;2.35;;;;;;;6.33;69.01;102593.69;5242011;28;20120;-69
2021/04/02 08:06:38;;;;;;;10.38;2.90;;;;;;;6.48;68.51;102594.84;5241960;28;20368;-70
2021/04/02 08:09:10;;;;;;;16.83;2.90;;;;;;;6.61;68.46;102592.59;5240730;28;20029;-68
2021/04/02 08:11:45;;;;;;;8.40;2.72;;;;;;;6.78;67.60;102597.94;5242322;28;20025;-69
2021/04/02 08:14:31;;;;;;;12.60;2.67;;;;;;;6.78;66.62;102585.78;5241205;28;20025;-70
2021/04/02 08:17:08;;;;;;;9.85;2.88;;;;;;;7.06;67.11;102601.13;5242686;28;20025;-69
2021/04/02 08:19:41;;;;;;;10.07;2.50;;;;;;;7.16;65.01;102603.31;5241810;28;20021;-71
2021/04/02 08:22:16;;;;;;;8.65;2.25;;;;;;;7.37;65.00;102610.25;5241053;28;20056;-69
2021/04/02 08:24:48;;;;;;;14.90;2.60;;;;;;;7.39;63.77;102600.59;5239109;28;20045;-69
2021/04/02 08:27:20;;;;;;;10.13;3.03;;;;;;;7.54;64.05;102596.50;5233952;28;20045;-69
2021/04/02 08:30:02;;;;;;;13.05;2.15;;;;;;;7.57;62.58;102594.56;5242612;28;20104;-70
2021/04/02 08:32:35;;;;;;;8.13;2.35;;;;;;;7.84;62.28;102602.09;5243048;28;20446;-70
2021/04/02 08:35:08;;;;;;;;;;;;;;;8.11;63.13;102601.75;5242561;28;20028;-70
2021/04/02 08:38:04;;;;;;;7.82;2.47;;;;;;;8.34;62.28;102614.56;5240740;28;19913;-70
2021/04/02 08:40:37;;;;;;;10.63;2.67;;;;;;;8.28;61.04;102607.03;5239330;28;20021;-69
2021/04/02 08:43:12;;;;;;;10.00;2.30;;;;;;;8.34;60.79;102618.97;5239602;28;20072;-69
2021/04/02 08:45:43;;;;;;;13.48;2.72;;;;;;;8.03;59.63;102605.56;5239708;28;20071;-71
2021/04/02 08:48:22;;;;;;;7.80;1.95;;;;;;;8.07;61.44;102626.28;5224604;28;20390;-69
2021/04/02 08:50:53;;;;;;;8.55;2.20;;;;;;;7.77;61.41;102611.13;5240620;28;20033;-69
2021/04/02 08:53:24;;;;;;;8.45;2.40;;;;;;;7.71;61.43;102622.66;5237174;28;20394;-69
2021/04/02 08:55:56;;;;;;;9.65;2.30;;;;;;;7.64;61.63;102621.22;5237372;28;20461;-70
2021/04/02 08:58:27;;;;;;;9.65;2.35;;;;;;;7.54;61.73;102607.75;5241357;28;20113;-70
2021/04/02 09:00:59;;;;;;;7.93;2.60;;;;;;;7.52;61.48;102617.41;5241461;28;20403;-72
2021/04/02 09:03:30;;;;;;;9.52;2.53;;;;;;;7.52;61.49;102617.41;5224381;28;20030;-70
2021/04/02 09:06:01;;;;;;;11.35;2.45;;;;;;;7.52;61.00;102617.41;5240616;28;20029;-69
2021/04/02 09:08:34;;;;;;;16.33;2.58;;;;;;;7.55;59.94;102619.88;5239470;28;20486;-69
2021/04/02 09:11:13;;;;;;;6.50;2.22;;;;;;;7.61;60.33;102623.13;5240101;28;20022;-71
2021/04/02 09:13:47;;;;;;;6.50;1.70;;;;;;;7.60;58.89;102621.44;5238194;28;20521;-70
2021/04/02 09:16:20;;;;;;;11.98;2.42;;;;;;;7.60;60.10;102617.06;5220731;28;20482;-69
2021/04/02 09:18:57;;;;;;;8.95;2.10;;;;;;;7.70;59.29;102617.53;5238489;28;20052;-69
2021/04/02 09:21:29;;;;;;;8.63;2.40;;;;;;;7.78;59.45;102621.47;5223368;28;20037;-70
2021/04/02 09:24:01;;;;;;;9.13;2.28;;;;;;;7.83;59.41;102618.66;5237715;28;20573;-70
2021/04/02 09:26:40;;;;;;;8.07;2.08;;;;;;;8.21;59.08;102614.28;5237982;28;20032;-70
2021/04/02 09:29:14;;;;;;;9.38;2.40;;;;;;;8.29;57.36;102613.94;5238781;28;20102;-68
2021/04/02 09:31:46;;;;;;;9.43;2.25;;;;;;;8.46;58.65;102616.63;5239118;28;20072;-67
2021/04/02 09:34:21;;;;;;;12.43;2.45;;;;;;;8.42;57.93;102614.25;5238423;28;20486;-68
2021/04/02 09:36:52;;;;;;;9.57;2.28;;;;;;;8.36;57.26;102617.94;5239291;28;20028;-67
2021/04/02 09:39:26;;;;;;;8.15;2.35;;;;;;;8.25;56.63;102615.00;5239426;28;20040;-68
2021/04/02 09:42:04;;;;;;;6.25;1.83;;;;;;;8.23;56.84;102619.47;5237563;28;20033;-67
2021/04/02 09:44:38;;;;;;;8.70;1.92;;;;;;;8.01;57.51;102611.75;5238205;28;20486;-67
2021/04/02 09:47:13;;;;;;;8.90;2.30;;;;;;;7.98;58.42;102612.75;5237468;28;20045;-68
2021/04/02 09:49:44;;;;;;;8.00;2.60;;;;;;;8.08;58.77;102613.19;5238095;28;20025;-68
2021/04/02 09:52:16;;;;;;;7.60;2.20;;;;;;;7.96;56.73;102616.34;5239729;28;20033;-69
2021/04/02 09:54:47;;;;;;;21.00;2.70;;;;;;;7.92;56.79;102618.25;5237493;28;20024;-67
2021/04/02 09:57:18;;;;;;;6.60;1.75;;;;;;;7.88;56.57;102621.03;5238244;28;20565;-68
2021/04/02 09:59:50;;;;;;;8.38;2.22;;;;;;;7.83;56.85;102618.66;5239059;28;20079;-71
2021/04/02 10:02:21;;;;;;;7.30;2.38;;;;;;;7.88;56.13;102608.88;5240347;28;20025;-70
2021/04/02 10:04:53;;;;;;;7.20;2.17;;;;;;;8.16;56.54;102608.44;5240459;28;20056;-71
2021/04/02 10:07:24;;;;;;;12.73;2.30;;;;;;;8.54;56.69;102608.44;5238800;28;20033;-70
2021/04/02 10:09:55;;;;;;;7.43;2.20;;;;;;;8.85;55.31;102606.94;5238865;28;20133;-69
2021/04/02 10:12:28;;;;;;;7.65;2.47;;;;;;;9.04;54.66;102597.25;5236517;28;20041;-67
2021/04/02 10:15:00;;;;;;;9.75;2.88;;;;;;;9.13;54.55;102601.16;5241915;28;20032;-67
2021/04/02 10:17:31;;;;;;;6.82;1.83;;;;;;;9.19;54.58;102600.88;5240313;28;20056;-69
2021/04/02 10:20:03;;;;;;;8.63;1.92;;;;;;;9.23;54.93;102599.78;5240455;28;20032;-68
2021/04/02 10:22:35;;;;;;;7.05;2.08;;;;;;;9.23;53.93;102602.41;5238002;28;20029;-69
2021/04/02 10:25:06;;;;;;;7.93;2.15;;;;;;;9.20;53.63;102600.78;5238356;28;20021;-69
2021/04/02 10:27:38;;;;;;;8.85;1.90;;;;;;;9.10;53.33;102602.19;5235775;28;20040;-68
2021/04/02 10:30:10;;;;;;;7.90;1.88;;;;;;;9.04;52.29;102597.25;5230780;28;20025;-69
2021/04/02 10:32:41;;;;;;;5.65;2.22;;;;;;;9.07;53.50;102604.94;5231980;28;20080;-69
2021/04/02 10:35:13;;;;;;;8.40;2.47;;;;;;;8.94;53.92;102606.47;5238230;28;20032;-69
2021/04/02 10:37:44;;;;;;;9.02;2.53;;;;;;;8.90;54.18;102605.81;5237714;28;20030;-69
2021/04/02 10:40:16;;;;;;;7.47;2.35;;;;;;;8.83;54.34;102612.25;5239092;28;20425;-69
2021/04/02 10:42:48;;;;;;;9.68;2.55;;;;;;;8.80;54.55;102622.84;5236786;28;20036;-70
2021/04/02 10:45:19;;;;;;;8.35;2.33;;;;;;;8.77;53.88;102612.53;5238337;28;20253;-68
2021/04/02 10:47:50;;;;;;;10.15;2.38;;;;;;;8.79;54.13;102608.09;5237907;28;20487;-69
2021/04/02 10:50:27;;;;;;;8.10;2.22;;;;;;;8.89;54.21;102614.53;5237710;28;20429;-69
2021/04/02 10:52:58;;;;;;;10.80;2.33;;;;;;;8.86;54.22;102619.91;5238489;28;20040;-69
2021/04/02 10:55:30;;;;;;;7.82;2.13;;;;;;;8.80;53.33;102612.41;5236862;28;20478;-68
2021/04/02 10:58:04;;;;;;;11.07;2.58;;;;;;;8.94;54.36;102614.31;5234074;28;20030;-68
2021/04/02 11:00:39;;;;;;;8.63;2.47;;;;;;;8.84;53.32;102616.56;5237095;28;20112;-70
2021/04/02 11:03:10;;;;;;;6.63;2.28;;;;;;;8.82;53.67;102620.16;5237849;28;20032;-68
2021/04/02 11:05:42;;;;;;;10.30;2.35;;;;;;;8.84;54.25;102618.31;5231005;28;20033;-68
2021/04/02 11:08:14;;;;;;;7.00;2.15;;;;;;;8.87;53.75;102613.78;5237422;28;20116;-71
2021/04/02 11:10:45;;;;;;;9.23;2.03;;;;;;;8.84;53.77;102610.47;5230692;28;20022;-70
2021/04/02 11:13:16;;;;;;;10.13;2.63;;;;;;;8.88;52.74;102620.72;5220440;28;20055;-70
2021/04/02 11:15:48;;;;;;;6.28;1.77;;;;;;;9.36;53.60;102618.34;5239377;28;20033;-70
2021/04/02 11:18:19;;;;;;;8.75;2.08;;;;;;;9.34;52.33;102617.56;5240067;28;20041;-70
2021/04/02 11:20:50;;;;;;;11.30;2.45;;;;;;;9.42;52.81;102618.84;5237553;28;20025;-69
2021/04/02 11:23:22;;;;;;;10.32;2.40;;;;;;;9.56;53.27;102618.13;5237007;28;20044;-69
2021/04/02 11:25:54;;;;;;;6.50;2.72;;;;;;;9.40;51.86;102614.63;5236900;28;20471;-69
2021/04/02 11:28:26;;;;;;;6.35;2.28;;;;;;;9.42;52.71;102612.75;5234591;28;20115;-69
2021/04/02 11:30:57;;;;;;;10.95;2.50;;;;;;;9.47;52.50;102606.38;5238461;28;20052;-69
2021/04/02 11:33:28;;;;;;;10.80;2.42;;;;;;;9.41;52.12;102598.84;5238445;28;20081;-69
2021/04/02 11:35:59;;;;;;;12.88;2.17;;;;;;;9.52;51.77;102606.13;5236642;28;20030;-71
2021/04/02 11:38:31;;;;;;;9.63;2.03;;;;;;;9.52;52.35;102598.28;5237100;28;20029;-69
2021/04/02 11:41:03;;;;;;;9.77;2.20;;;;;;;9.52;51.49;102592.22;5238997;28;20034;-69
2021/04/02 11:43:34;;;;;;;12.57;2.20;;;;;;;9.48;51.13;102599.38;5235295;28;20044;-69
2021/04/02 11:46:05;;;;;;;17.05;3.22;;;;;;;9.44;50.54;102600.47;5238454;28;20037;-69
2021/04/02 11:48:37;;;;;;;11.52;2.17;;;;;;;9.63;51.30;102603.81;5242195;28;20145;-69
2021/04/02 11:51:08;;;;;;;10.15;2.50;;;;;;;10.01;50.56;102595.69;5241463;28;20036;-69
2021/04/02 11:53:39;;;;;;;17.55;2.97;;;;;;;10.03;50.72;102598.19;5234144;28;20037;-69
2021/04/02 11:56:10;;;;;;;7.50;1.88;;;;;;;9.77;49.27;102596.97;5240693;28;20032;-69
2021/04/02 11:58:42;;;;;;;14.25;2.67;;;;;;;9.61;49.89;102602.19;5240733;28;20105;-69